createdAt,value
2018-06-05T00:01:06.918Z,51.07
2018-06-05T00:03:33.865Z,49.97
2018-06-05T00:06:00.386Z,49.47
2018-06-05T00:08:27.738Z,48.87
2018-06-05T00:10:54.287Z,50.83
2018-06-05T00:13:20.726Z,61.83
2018-06-05T00:15:47.884Z,59.17
2018-06-05T00:18:14.600Z,56.50
2018-06-05T00:20:41.340Z,62.47
2018-06-05T00:23:07.715Z,41.63
2018-06-05T00:25:34.141Z,48.30
2018-06-05T00:28:01.372Z,52.53
2018-06-05T00:30:27.962Z,43.50
2018-06-05T00:32:54.624Z,39.40
2018-06-05T00:35:21.891Z,61.27
2018-06-05T00:37:48.361Z,44.53
2018-06-05T00:40:15.240Z,41.93
2018-06-05T00:42:42.091Z,38.90
2018-06-05T00:45:15.221Z,48.53
2018-06-05T00:47:43.412Z,34.73
2018-06-05T00:50:11.144Z,41.77
2018-06-05T00:52:38.368Z,44.93
2018-06-05T00:55:06.109Z,37.43
2018-06-05T00:57:34.326Z,41.50
2018-06-05T01:00:01.547Z,34.33
2018-06-05T01:02:28.401Z,30.27
2018-06-05T01:04:54.845Z,26.93
2018-06-05T01:07:21.372Z,37.37
2018-06-05T01:09:48.041Z,29.73
2018-06-05T01:12:14.459Z,38.67
2018-06-05T01:14:41.119Z,27.07
2018-06-05T01:20:13.936Z,38.63
2018-06-05T01:22:41.194Z,45.53
2018-06-05T01:25:07.856Z,31.67
2018-06-05T01:27:35.035Z,39.10
2018-06-05T01:30:02.577Z,28.43
2018-06-05T01:32:29.969Z,39.57
2018-06-05T01:34:56.586Z,33.33
2018-06-05T01:37:23.061Z,56.13
2018-06-05T01:39:49.662Z,46.13
2018-06-05T01:42:16.574Z,33.10
2018-06-05T01:44:43.041Z,28.77
2018-06-05T01:47:09.998Z,28.40
2018-06-05T01:49:40.902Z,38.07
2018-06-05T01:52:09.108Z,51.13
2018-06-05T01:54:35.991Z,38.23
2018-06-05T01:57:03.102Z,49.40
2018-06-05T01:59:30.517Z,47.17
2018-06-05T02:01:56.998Z,54.80
2018-06-05T02:04:24.029Z,35.57
2018-06-05T02:06:51.397Z,49.73
2018-06-05T02:09:17.813Z,45.50
2018-06-05T02:11:44.392Z,38.03
2018-06-05T02:14:11.792Z,32.20
2018-06-05T02:16:38.246Z,37.60
2018-06-05T02:19:04.750Z,40.47
2018-06-05T02:21:31.182Z,31.87
2018-06-05T02:23:57.616Z,37.50
2018-06-05T02:26:24.075Z,48.77
2018-06-05T02:28:51.927Z,37.50
2018-06-05T02:31:18.378Z,55.87
2018-06-05T02:33:44.795Z,41.07
2018-06-05T02:36:11.338Z,47.63
2018-06-05T02:38:38.289Z,40.73
2018-06-05T02:41:04.897Z,48.73
2018-06-05T02:43:31.442Z,38.03
2018-06-05T02:45:58.564Z,51.00
2018-06-05T02:48:25.736Z,44.70
2018-06-05T02:50:52.505Z,53.23
2018-06-05T02:53:19.423Z,43.87
2018-06-05T02:55:46.270Z,35.93
2018-06-05T02:58:12.936Z,39.10
2018-06-05T03:00:39.934Z,40.77
2018-06-05T03:03:08.482Z,39.57
2018-06-05T03:05:35.081Z,40.50
2018-06-05T03:08:01.653Z,47.40
2018-06-05T03:10:28.128Z,47.07
2018-06-05T03:12:54.734Z,44.90
2018-06-05T03:15:21.130Z,44.93
2018-06-05T03:17:47.648Z,42.43
2018-06-05T03:20:14.202Z,41.90
2018-06-05T03:22:40.801Z,36.10
2018-06-05T03:25:07.830Z,56.60
2018-06-05T03:27:41.190Z,45.77
2018-06-05T03:30:07.758Z,37.97
2018-06-05T03:32:35.300Z,33.57
2018-06-05T03:35:01.805Z,47.70
2018-06-05T03:37:29.392Z,45.17
2018-06-05T03:39:56.344Z,39.07
2018-06-05T03:42:22.928Z,42.53
2018-06-05T03:44:49.917Z,33.17
2018-06-05T03:47:16.459Z,49.17
2018-06-05T03:49:43.064Z,31.43
2018-06-05T03:52:10.062Z,51.43
2018-06-05T03:54:36.831Z,30.77
2018-06-05T03:57:03.378Z,38.50
2018-06-05T03:59:30.986Z,36.27
2018-06-05T04:01:57.745Z,33.90
2018-06-05T04:04:25.006Z,39.80
2018-06-05T04:06:52.293Z,32.80
2018-06-05T04:09:19.180Z,27.40
2018-06-05T04:11:45.994Z,35.20
2018-06-05T04:14:12.636Z,31.93
2018-06-05T04:16:39.639Z,39.30
2018-06-05T04:19:06.514Z,35.67
2018-06-05T04:21:34.296Z,42.30
2018-06-05T04:25:53.297Z,32.13
2018-06-05T04:28:22.043Z,44.27
2018-06-05T04:30:50.176Z,41.80
2018-06-05T04:33:20.547Z,50.03
2018-06-05T04:35:51.127Z,31.17
2018-06-05T04:38:19.493Z,34.50
2018-06-05T04:40:58.251Z,41.80
2018-06-05T04:43:26.709Z,26.20
2018-06-05T04:45:54.765Z,36.90
2018-06-05T04:48:22.892Z,34.57
2018-06-05T04:50:50.889Z,44.33
2018-06-05T04:53:19.117Z,43.43
2018-06-05T04:55:48.109Z,28.93
2018-06-05T04:58:17.144Z,38.40
2018-06-05T05:00:45.933Z,36.10
2018-06-05T05:03:14.461Z,33.37
2018-06-05T05:05:44.201Z,25.10
2018-06-05T05:08:18.282Z,35.40
2018-06-05T05:10:47.908Z,36.30
2018-06-05T05:13:16.523Z,30.23
2018-06-05T05:15:46.763Z,32.73
2018-06-05T05:18:15.985Z,33.17
2018-06-05T05:26:29.396Z,28.47
2018-06-05T05:29:07.984Z,40.63
2018-06-05T05:31:45.981Z,38.63
2018-06-05T05:34:14.935Z,28.47
2018-06-05T05:36:43.498Z,29.50
2018-06-05T05:39:24.133Z,32.83
2018-06-05T05:42:01.098Z,40.47
2018-06-05T05:44:34.647Z,33.87
2018-06-05T05:52:57.383Z,38.23
2018-06-05T05:58:29.795Z,40.23
2018-06-05T06:01:25.360Z,32.20
2018-06-05T06:03:59.686Z,34.23
2018-06-05T06:06:35.335Z,50.17
2018-06-05T06:09:06.224Z,46.03
2018-06-05T06:11:36.479Z,36.27
2018-06-05T06:14:24.500Z,29.73
2018-06-05T06:16:55.179Z,32.70
2018-06-05T06:19:46.976Z,41.37
2018-06-05T06:22:25.750Z,47.63
2018-06-05T06:24:58.095Z,45.67
2018-06-05T06:27:30.264Z,39.07
2018-06-05T06:33:02.495Z,40.37
2018-06-05T06:35:47.737Z,41.17
2018-06-05T06:38:17.641Z,46.33
2018-06-05T06:40:50.790Z,37.97
2018-06-05T06:43:32.443Z,38.10
2018-06-05T06:46:02.737Z,37.23
2018-06-05T06:48:33.197Z,36.67
2018-06-05T06:51:05.516Z,53.10
2018-06-05T06:53:41.092Z,37.30
2018-06-05T06:56:11.306Z,36.90
2018-06-05T06:58:44.602Z,47.53
2018-06-05T07:01:15.533Z,31.30
2018-06-05T07:03:50.988Z,53.37
2018-06-05T07:06:21.565Z,46.10
2018-06-05T07:08:54.697Z,33.23
2018-06-05T07:11:23.924Z,33.43
2018-06-05T07:13:52.963Z,52.93
2018-06-05T07:16:22.090Z,42.80
2018-06-05T07:18:50.063Z,48.33
2018-06-05T07:21:18.916Z,32.93
2018-06-05T07:23:48.601Z,45.53
2018-06-05T07:26:20.020Z,46.23
2018-06-05T07:28:48.943Z,48.07
2018-06-05T07:31:20.010Z,50.73
2018-06-05T07:33:52.227Z,58.53
2018-06-05T07:36:23.584Z,43.47
2018-06-05T07:38:52.268Z,44.33
2018-06-05T07:41:21.508Z,44.83
2018-06-05T07:43:49.633Z,62.17
2018-06-05T07:46:17.938Z,39.47
2018-06-05T07:48:45.591Z,37.87
2018-06-05T07:51:13.497Z,26.77
2018-06-05T07:53:41.761Z,33.50
2018-06-05T07:56:09.763Z,39.87
2018-06-05T07:58:37.767Z,50.20
2018-06-05T08:01:05.703Z,55.97
2018-06-05T08:03:33.761Z,57.13
2018-06-05T08:06:01.866Z,40.37
2018-06-05T08:08:30.460Z,35.03
2018-06-05T08:10:58.557Z,27.83
2018-06-05T08:13:26.523Z,32.37
2018-06-05T08:15:54.448Z,40.67
2018-06-05T08:18:22.394Z,37.73
2018-06-05T08:20:50.687Z,29.77
2018-06-05T08:23:19.858Z,33.67
2018-06-05T08:25:48.010Z,19.60
2018-06-05T08:28:15.968Z,23.17
2018-06-05T08:30:44.467Z,42.60
2018-06-05T08:33:12.492Z,19.17
2018-06-05T08:35:41.940Z,32.07
2018-06-05T08:38:09.775Z,32.77
2018-06-05T08:40:37.750Z,32.30
2018-06-05T08:43:05.703Z,28.23
2018-06-05T08:45:33.966Z,29.40
2018-06-05T08:48:02.013Z,24.00
2018-06-05T08:50:30.238Z,31.10
2018-06-05T08:53:00.301Z,25.37
2018-06-05T08:55:28.168Z,25.63
2018-06-05T08:57:58.654Z,26.33
2018-06-05T09:00:27.486Z,22.57
2018-06-05T09:02:57.478Z,20.73
2018-06-05T09:05:26.836Z,18.90
2018-06-05T09:08:02.583Z,28.03
2018-06-05T09:10:32.339Z,26.10
2018-06-05T09:13:00.155Z,21.63
2018-06-05T09:15:28.457Z,27.77
2018-06-05T09:17:56.629Z,25.87
2018-06-05T09:20:24.613Z,23.53
2018-06-05T09:22:53.571Z,30.53
2018-06-05T09:25:21.417Z,25.83
2018-06-05T09:27:49.284Z,32.30
2018-06-05T09:30:17.140Z,22.57
2018-06-05T09:32:45.023Z,28.73
2018-06-05T09:37:47.593Z,31.90
2018-06-05T09:40:15.640Z,26.23
2018-06-05T09:42:43.500Z,34.87
2018-06-05T09:45:11.256Z,26.60
2018-06-05T09:47:39.200Z,27.10
2018-06-05T09:50:07.499Z,25.77
2018-06-05T09:52:35.562Z,18.40
2018-06-05T09:55:03.688Z,17.57
2018-06-05T09:57:32.296Z,27.57
2018-06-05T10:00:00.579Z,26.80
2018-06-05T10:02:28.460Z,15.60
2018-06-05T10:04:57.250Z,25.10
2018-06-05T10:07:25.567Z,21.37
2018-06-05T10:09:53.738Z,15.83
2018-06-05T10:12:22.218Z,27.40
2018-06-05T10:14:50.742Z,15.10
2018-06-05T10:17:19.288Z,21.23
2018-06-05T10:19:49.378Z,17.67
2018-06-05T10:22:18.531Z,26.80
2018-06-05T10:24:48.933Z,20.33
2018-06-05T10:27:16.851Z,17.80
2018-06-05T10:29:44.769Z,23.17
2018-06-05T10:32:13.205Z,21.57
2018-06-05T10:34:41.538Z,21.13
2018-06-05T10:37:14.127Z,23.83
2018-06-05T10:39:42.536Z,22.63
2018-06-05T10:42:12.347Z,22.93
2018-06-05T10:44:46.329Z,23.83
2018-06-05T10:47:14.850Z,22.60
2018-06-05T10:49:42.607Z,15.27
2018-06-05T10:52:11.412Z,22.67
2018-06-05T10:54:39.449Z,26.27
2018-06-05T10:57:07.586Z,28.13
2018-06-05T10:59:36.654Z,17.00
2018-06-05T11:02:05.387Z,20.77
2018-06-05T11:04:33.496Z,20.00
2018-06-05T11:07:01.343Z,19.77
2018-06-05T11:09:29.234Z,12.47
2018-06-05T11:11:58.776Z,16.50
2018-06-05T11:14:26.819Z,12.37
2018-06-05T11:16:54.792Z,16.60
2018-06-05T11:19:22.601Z,22.70
2018-06-05T11:21:50.610Z,14.70
2018-06-05T11:24:20.464Z,11.90
2018-06-05T11:26:48.328Z,17.20
2018-06-05T11:29:16.364Z,16.43
2018-06-05T11:31:45.973Z,20.70
2018-06-05T11:34:14.940Z,15.47
2018-06-05T11:36:42.992Z,20.00
2018-06-05T11:39:10.971Z,18.93
2018-06-05T11:41:38.924Z,18.80
2018-06-05T11:44:07.685Z,14.60
2018-06-05T11:46:39.057Z,18.37
2018-06-05T11:49:07.411Z,15.47
2018-06-05T11:51:37.591Z,16.70
2018-06-05T11:54:05.849Z,17.17
2018-06-05T11:56:35.371Z,17.10
2018-06-05T11:59:03.370Z,22.57
2018-06-05T12:01:31.663Z,13.10
2018-06-05T12:04:01.520Z,13.73
2018-06-05T12:06:29.702Z,15.47
2018-06-05T12:08:57.925Z,22.17
2018-06-05T12:11:25.875Z,18.03
2018-06-05T12:13:53.867Z,17.30
2018-06-05T12:16:22.110Z,18.20
2018-06-05T12:18:50.039Z,20.27
2018-06-05T12:21:18.048Z,17.07
2018-06-05T12:23:47.185Z,29.23
2018-06-05T12:26:15.275Z,16.47
2018-06-05T12:28:47.297Z,15.77
2018-06-05T12:31:17.926Z,11.87
2018-06-05T12:33:48.954Z,14.17
2018-06-05T12:36:20.171Z,10.70
2018-06-05T12:38:54.862Z,13.20
2018-06-05T12:41:27.802Z,10.73
2018-06-05T12:46:37.378Z,14.00
2018-06-05T12:49:05.475Z,12.33
2018-06-05T12:51:33.498Z,13.83
2018-06-05T12:54:05.772Z,11.80
2018-06-05T12:56:35.042Z,11.57
2018-06-05T12:59:11.375Z,33.67
2018-06-05T13:01:42.417Z,11.20
2018-06-05T13:04:16.271Z,13.20
2018-06-05T13:06:49.446Z,12.60
2018-06-05T13:09:22.018Z,11.17
2018-06-05T13:14:29.796Z,11.83
2018-06-05T13:17:01.157Z,14.00
2018-06-05T13:19:35.193Z,13.10
2018-06-05T13:22:05.819Z,15.20
2018-06-05T13:24:47.146Z,11.70
2018-06-05T13:27:21.249Z,11.33
2018-06-05T13:29:57.121Z,12.67
2018-06-05T13:32:29.287Z,10.80
2018-06-05T13:35:04.128Z,9.70
2018-06-05T13:37:36.321Z,14.43
2018-06-05T13:42:56.003Z,6.00
2018-06-05T13:45:29.027Z,9.07
2018-06-05T13:47:58.711Z,8.13
2018-06-05T13:50:32.667Z,9.33
2018-06-05T13:53:08.293Z,10.40
2018-06-05T13:55:37.917Z,9.93
2018-06-05T13:58:11.743Z,8.63
2018-06-05T14:00:50.242Z,10.47
2018-06-05T14:03:23.349Z,12.00
2018-06-05T14:05:52.737Z,10.80
2018-06-05T14:08:38.942Z,9.33
2018-06-05T14:11:07.926Z,8.40
2018-06-05T14:13:36.811Z,4.63
2018-06-05T14:16:06.608Z,7.00
2018-06-05T14:18:39.149Z,7.63
2018-06-05T14:27:03.079Z,12.07
2018-06-05T14:29:34.632Z,6.17
2018-06-05T14:32:10.207Z,4.67
2018-06-05T14:34:39.873Z,7.10
2018-06-05T14:37:12.109Z,15.33
2018-06-05T14:39:42.294Z,14.47
2018-06-05T14:42:18.597Z,6.50
2018-06-05T14:44:55.352Z,7.30
2018-06-05T14:47:30.105Z,6.60
2018-06-05T14:50:03.609Z,6.53
2018-06-05T14:52:51.813Z,13.37
2018-06-05T14:55:20.733Z,5.40
2018-06-05T14:57:51.813Z,5.90
2018-06-05T15:03:09.110Z,6.60
2018-06-05T15:05:38.628Z,16.13
2018-06-05T15:08:09.408Z,6.93
2018-06-05T15:10:41.740Z,8.03
2018-06-05T15:13:10.242Z,10.60
2018-06-05T15:15:42.609Z,8.20
2018-06-05T15:18:10.481Z,8.00
2018-06-05T15:20:41.715Z,12.77
2018-06-05T15:23:23.205Z,6.13
2018-06-05T15:25:51.406Z,4.17
2018-06-05T15:28:21.239Z,7.20
2018-06-05T15:30:59.433Z,7.77
2018-06-05T15:33:32.102Z,6.40
2018-06-05T15:36:04.270Z,6.13
2018-06-05T15:38:36.889Z,5.90
2018-06-05T15:41:05.845Z,5.17
2018-06-05T15:43:43.643Z,7.43
2018-06-05T15:46:14.844Z,4.87
2018-06-05T15:48:48.083Z,4.80
2018-06-05T15:51:19.120Z,7.23
2018-06-05T15:53:52.732Z,4.83
2018-06-05T15:56:25.622Z,6.13
2018-06-05T15:58:56.093Z,5.23
2018-06-05T16:01:26.267Z,3.80
2018-06-05T16:04:02.316Z,4.10
2018-06-05T16:06:31.957Z,5.63
2018-06-05T16:09:02.585Z,2.60
2018-06-05T16:11:31.148Z,4.23
2018-06-05T16:14:01.370Z,6.50
2018-06-05T16:16:34.689Z,9.67
2018-06-05T16:19:03.140Z,3.30
2018-06-05T16:21:36.980Z,7.30
2018-06-05T16:24:17.013Z,8.77
2018-06-05T16:26:45.725Z,7.57
2018-06-05T16:29:17.360Z,4.13
2018-06-05T16:36:47.583Z,5.15
2018-06-05T17:23:51.696Z,3.83
2018-06-05T17:26:19.584Z,4.20
2018-06-05T17:28:47.592Z,3.47
2018-06-05T17:31:15.487Z,3.87
2018-06-05T17:33:43.402Z,4.90
2018-06-05T17:58:24.137Z,4.00
2018-06-05T18:03:19.426Z,4.80
2018-06-05T18:05:47.419Z,7.95
2018-06-05T18:08:21.683Z,4.15
2018-06-05T18:10:52.151Z,3.90
2018-06-05T18:18:15.966Z,15.40
2018-06-05T18:23:15.992Z,5.03
2018-06-05T18:25:43.907Z,9.87
2018-06-05T18:28:12.498Z,5.13
2018-06-05T18:30:40.748Z,6.17
2018-06-05T18:33:09.350Z,13.77
2018-06-05T18:35:37.461Z,4.67
2018-06-05T18:38:06.916Z,3.93
2018-06-05T18:40:35.899Z,9.73
2018-06-05T18:43:04.304Z,6.00
2018-06-05T18:45:34.637Z,5.80
2018-06-05T18:48:03.379Z,9.57
2018-06-05T18:50:32.469Z,6.00
2018-06-05T18:53:00.641Z,3.13
2018-06-05T18:55:28.965Z,3.73
2018-06-05T18:57:58.153Z,9.00
2018-06-05T19:00:26.403Z,5.17
2018-06-05T19:02:56.194Z,5.27
2018-06-05T19:05:24.507Z,10.10
2018-06-05T19:07:55.019Z,6.40
2018-06-05T19:10:23.240Z,7.10
2018-06-05T19:13:00.985Z,27.03
2018-06-05T19:15:36.322Z,6.30
2018-06-05T19:18:08.312Z,15.93
2018-06-05T19:26:05.730Z,21.73
2018-06-05T19:28:35.547Z,3.67
2018-06-05T19:31:14.710Z,7.87
2018-06-05T19:33:47.622Z,5.07
2018-06-05T19:36:15.433Z,9.20
2018-06-05T19:38:43.521Z,3.10
2018-06-05T19:41:13.557Z,4.67
2018-06-05T19:43:51.625Z,2.43
2018-06-05T19:46:23.177Z,4.40
2018-06-05T19:48:51.153Z,4.47
2018-06-05T19:51:19.927Z,5.53
2018-06-05T19:53:47.934Z,12.23
2018-06-05T19:56:19.757Z,6.90
2018-06-05T19:58:48.712Z,3.63
2018-06-05T20:01:16.529Z,2.47
2018-06-05T20:03:44.941Z,7.40
2018-06-05T20:06:19.170Z,5.17
2018-06-05T20:08:52.492Z,6.77
2018-06-05T20:11:29.623Z,8.33
2018-06-05T20:13:57.929Z,2.57
2018-06-05T20:16:39.295Z,7.57
2018-06-05T20:19:21.837Z,7.43
2018-06-05T20:24:25.168Z,3.23
2018-06-05T20:26:55.540Z,6.40
2018-06-05T20:35:09.866Z,3.90
2018-06-05T20:43:07.458Z,2.57
2018-06-05T20:45:35.428Z,1.80
2018-06-05T20:50:45.410Z,7.77
2018-06-05T20:53:24.436Z,13.37
2018-06-05T20:55:57.566Z,7.37
2018-06-05T20:58:30.314Z,3.17
2018-06-05T21:01:00.359Z,3.60
2018-06-05T21:03:36.760Z,3.70
2018-06-05T21:06:10.620Z,2.27
2018-06-05T21:08:55.693Z,5.50
2018-06-05T21:11:28.738Z,5.90
2018-06-05T21:16:54.764Z,3.00
2018-06-05T21:22:10.595Z,5.23
2018-06-05T21:24:46.742Z,5.33
2018-06-05T21:33:01.898Z,2.60
2018-06-05T21:38:18.418Z,3.20
2018-06-05T21:43:32.123Z,7.37
2018-06-05T21:46:03.425Z,2.73
2018-06-05T21:51:21.784Z,4.50
2018-06-05T21:53:49.768Z,7.80
2018-06-05T21:56:19.005Z,3.37
2018-06-05T21:58:48.203Z,4.40
2018-06-05T22:01:22.233Z,6.00
2018-06-05T22:03:50.117Z,4.50
2018-06-05T22:06:27.572Z,4.03
2018-06-05T22:08:59.032Z,7.90
2018-06-05T22:11:27.003Z,5.50
2018-06-05T22:13:54.848Z,3.40
2018-06-05T22:16:22.967Z,5.80
2018-06-05T22:18:53.733Z,2.87
2018-06-05T22:21:22.487Z,2.63
2018-06-05T22:23:50.932Z,3.10
2018-06-05T22:26:20.085Z,5.33
2018-06-05T22:28:49.994Z,2.57
2018-06-05T22:31:20.414Z,13.37
2018-06-05T22:33:49.907Z,4.33
2018-06-05T22:36:24.257Z,2.50
2018-06-05T22:38:53.189Z,8.10
2018-06-05T22:41:22.053Z,3.50
2018-06-05T22:43:50.565Z,30.90
2018-06-05T22:46:18.721Z,4.83
2018-06-05T22:48:46.863Z,7.40
2018-06-05T22:51:15.393Z,7.97
2018-06-05T22:53:44.477Z,18.47
2018-06-05T22:56:12.759Z,3.43
2018-06-05T22:58:41.446Z,3.97
2018-06-05T23:01:09.871Z,5.67
2018-06-05T23:03:38.523Z,3.80
2018-06-05T23:06:06.653Z,2.27
2018-06-05T23:08:34.798Z,3.53
2018-06-05T23:11:02.963Z,6.10
2018-06-05T23:13:31.144Z,13.80
2018-06-05T23:15:59.197Z,6.93
2018-06-05T23:18:28.207Z,10.93
2018-06-05T23:20:56.072Z,8.00
2018-06-05T23:23:24.654Z,12.93
2018-06-05T23:25:53.130Z,5.27
2018-06-05T23:28:23.332Z,4.70
2018-06-05T23:30:51.824Z,3.30
2018-06-05T23:33:19.968Z,11.27
2018-06-05T23:35:48.333Z,8.73
2018-06-05T23:38:17.424Z,6.00
2018-06-05T23:40:46.088Z,3.83
2018-06-05T23:43:14.489Z,5.73
2018-06-05T23:45:43.003Z,4.30
2018-06-05T23:48:11.039Z,3.57
2018-06-05T23:50:39.146Z,8.83
2018-06-05T23:53:07.010Z,3.27
2018-06-05T23:55:35.053Z,2.70
2018-06-05T23:58:03.139Z,4.43
